Time,TemperatureF,DewpointF,PressureIn,WindDirection,WindDirectionDegrees,WindSpeedMPH,WindSpeedGustMPH,Humidity,HourlyPrecipIn,Conditions,Clouds,dailyrainin,SoftwareType,DateUTC
2013-05-03 00:03:00,49.0,41.0,30.33,NE,41,1.0,1.0,75,0.00,,,0.00,,2013-05-03 04:03:00,
2013-05-03 00:12:00,49.0,41.0,30.33,NE,41,1.0,1.0,75,0.00,,,0.00,,2013-05-03 04:12:00,
2013-05-03 00:23:00,49.0,40.0,30.33,ESE,120,1.0,1.0,72,0.00,,,0.00,,2013-05-03 04:23:00,
2013-05-03 00:32:00,48.0,41.0,30.34,ESE,117,1.0,1.0,77,0.00,,,0.00,,2013-05-03 04:32:00,
2013-05-03 00:42:00,48.0,41.0,30.34,ESE,117,1.0,1.0,77,0.00,,,0.00,,2013-05-03 04:42:00,
2013-05-03 00:52:00,50.0,40.0,30.33,East,90,1.0,1.0,69,0.00,,,0.00,,2013-05-03 04:52:00,
2013-05-03 01:02:00,47.0,39.0,30.32,NNW,337,0.0,0.0,73,0.00,,,0.00,,2013-05-03 05:02:00,
2013-05-03 01:12:00,47.0,39.0,30.32,NNW,337,0.0,0.0,73,0.00,,,0.00,,2013-05-03 05:12:00,
2013-05-03 01:21:00,46.0,40.0,30.34,SE,133,0.0,1.0,78,0.00,,,0.00,,2013-05-03 05:21:00,
2013-05-03 01:32:00,44.0,39.0,30.33,SE,140,0.0,1.0,81,0.00,,,0.00,,2013-05-03 05:32:00,
2013-05-03 01:42:00,44.0,39.0,30.33,SE,140,0.0,1.0,81,0.00,,,0.00,,2013-05-03 05:42:00,
2013-05-03 01:52:00,44.0,39.0,30.33,SSE,151,0.0,1.0,82,0.00,,,0.00,,2013-05-03 05:52:00,
2013-05-03 02:02:00,44.0,39.0,30.32,SW,232,0.0,1.0,84,0.00,,,0.00,,2013-05-03 06:02:00,
2013-05-03 02:12:00,44.0,39.0,30.32,SW,232,0.0,1.0,84,0.00,,,0.00,,2013-05-03 06:12:00,
2013-05-03 02:21:00,44.0,39.0,30.33,ESE,104,1.0,1.0,84,0.00,,,0.00,,2013-05-03 06:21:00,
2013-05-03 02:32:00,46.0,41.0,30.33,East,95,1.0,2.0,81,0.00,,,0.00,,2013-05-03 06:32:00,
2013-05-03 02:42:00,46.0,41.0,30.33,East,95,1.0,2.0,81,0.00,,,0.00,,2013-05-03 06:42:00,
2013-05-03 02:51:00,42.0,37.0,30.34,SSE,165,0.0,1.0,81,0.00,,,0.00,,2013-05-03 06:51:00,
2013-05-03 03:01:00,42.0,38.0,30.33,SSE,166,0.0,1.0,86,0.00,,,0.00,,2013-05-03 07:01:00,
2013-05-03 03:11:00,42.0,38.0,30.33,SSE,166,0.0,1.0,86,0.00,,,0.00,,2013-05-03 07:11:00,
2013-05-03 03:21:00,42.0,38.0,30.34,SSE,151,1.0,1.0,86,0.00,,,0.00,,2013-05-03 07:21:00,
2013-05-03 03:32:00,44.0,40.0,30.34,SE,130,1.0,3.0,86,0.00,,,0.00,,2013-05-03 07:32:00,
2013-05-03 03:42:00,44.0,40.0,30.34,SE,130,1.0,3.0,86,0.00,,,0.00,,2013-05-03 07:42:00,
2013-05-03 03:52:00,45.0,40.0,30.34,SE,139,1.0,2.0,83,0.00,,,0.00,,2013-05-03 07:52:00,
2013-05-03 04:02:00,46.0,41.0,30.35,ESE,123,0.0,1.0,81,0.00,,,0.00,,2013-05-03 08:02:00,
2013-05-03 04:12:00,46.0,41.0,30.35,ESE,123,0.0,1.0,81,0.00,,,0.00,,2013-05-03 08:12:00,
2013-05-03 04:21:00,46.0,40.0,30.35,ESE,114,1.0,1.0,80,0.00,,,0.00,,2013-05-03 08:21:00,
2013-05-03 04:32:00,47.0,41.0,30.35,East,86,2.0,3.0,78,0.00,,,0.00,,2013-05-03 08:32:00,
2013-05-03 04:42:00,47.0,41.0,30.35,East,86,2.0,3.0,78,0.00,,,0.00,,2013-05-03 08:42:00,
2013-05-03 04:52:00,47.0,40.0,30.35,East,90,2.0,4.0,77,0.00,,,0.00,,2013-05-03 08:52:00,
2013-05-03 05:01:00,46.0,40.0,30.36,East,91,2.0,4.0,79,0.00,,,0.00,,2013-05-03 09:01:00,
2013-05-03 05:12:00,46.0,40.0,30.36,East,91,2.0,4.0,79,0.00,,,0.00,,2013-05-03 09:12:00,
2013-05-03 05:21:00,46.0,39.0,30.37,East,82,2.0,4.0,77,0.00,,,0.00,,2013-05-03 09:21:00,
2013-05-03 05:32:00,47.0,39.0,30.37,East,96,2.0,3.0,75,0.00,,,0.00,,2013-05-03 09:32:00,
2013-05-03 05:42:00,47.0,39.0,30.37,East,96,2.0,3.0,75,0.00,,,0.00,,2013-05-03 09:42:00,
2013-05-03 05:52:00,47.0,39.0,30.37,East,86,2.0,4.0,74,0.00,,,0.00,,2013-05-03 09:52:00,
2013-05-03 06:03:00,47.0,39.0,30.37,East,95,3.0,5.0,74,0.00,,,0.00,,2013-05-03 10:03:00,
2013-05-03 06:12:00,47.0,39.0,30.37,East,95,3.0,5.0,74,0.00,,,0.00,,2013-05-03 10:12:00,
2013-05-03 06:22:00,47.0,38.0,30.37,East,93,3.0,4.0,72,0.00,,,0.00,,2013-05-03 10:22:00,
2013-05-03 06:32:00,46.0,37.0,30.38,East,95,2.0,3.0,72,0.00,,,0.00,,2013-05-03 10:32:00,
2013-05-03 06:42:00,46.0,37.0,30.38,East,95,2.0,3.0,72,0.00,,,0.00,,2013-05-03 10:42:00,
2013-05-03 06:52:00,46.0,37.0,30.38,NE,50,0.0,1.0,72,0.00,,,0.00,,2013-05-03 10:52:00,
2013-05-03 07:02:00,47.0,38.0,30.38,ENE,72,2.0,4.0,71,0.00,,,0.00,,2013-05-03 11:02:00,
2013-05-03 07:11:00,47.0,38.0,30.38,ENE,72,2.0,4.0,71,0.00,,,0.00,,2013-05-03 11:11:00,
2013-05-03 07:22:00,48.0,39.0,30.38,East,83,3.0,5.0,71,0.00,,,0.00,,2013-05-03 11:22:00,
2013-05-03 07:32:00,48.0,39.0,30.38,East,89,3.0,5.0,71,0.00,,,0.00,,2013-05-03 11:32:00,
2013-05-03 07:42:00,48.0,39.0,30.38,East,89,3.0,5.0,71,0.00,,,0.00,,2013-05-03 11:42:00,
2013-05-03 07:51:00,48.0,39.0,30.39,East,87,4.0,6.0,70,0.00,,,0.00,,2013-05-03 11:51:00,
2013-05-03 08:02:00,49.0,40.0,30.39,ENE,71,4.0,9.0,70,0.00,,,0.00,,2013-05-03 12:02:00,
2013-05-03 08:11:00,49.0,40.0,30.39,ENE,71,4.0,9.0,70,0.00,,,0.00,,2013-05-03 12:11:00,
2013-05-03 08:21:00,49.0,40.0,30.39,ENE,71,4.0,9.0,70,0.00,,,0.00,,2013-05-03 12:21:00,
2013-05-03 08:32:00,51.0,40.0,30.39,East,91,5.0,7.0,65,0.00,,,0.00,,2013-05-03 12:32:00,
2013-05-03 08:42:00,51.0,40.0,30.39,East,91,5.0,7.0,65,0.00,,,0.00,,2013-05-03 12:42:00,
2013-05-03 08:51:00,52.0,39.0,30.39,ESE,109,5.0,7.0,60,0.00,,,0.00,,2013-05-03 12:51:00,
2013-05-03 09:01:00,52.0,39.0,30.39,ESE,109,5.0,7.0,60,0.00,,,0.00,,2013-05-03 13:01:00,
2013-05-03 09:11:00,52.0,39.0,30.39,ESE,109,5.0,7.0,60,0.00,,,0.00,,2013-05-03 13:11:00,
2013-05-03 09:22:00,52.0,39.0,30.39,ESE,109,5.0,7.0,60,0.00,,,0.00,,2013-05-03 13:22:00,
2013-05-03 09:50:00,58.0,37.0,30.39,East,89,5.0,7.0,46,0.00,,,0.00,,2013-05-03 13:50:00,
2013-05-03 10:02:00,58.0,37.0,30.39,East,89,5.0,7.0,46,0.00,,,0.00,,2013-05-03 14:02:00,
2013-05-03 10:11:00,58.0,37.0,30.39,East,89,5.0,7.0,46,0.00,,,0.00,,2013-05-03 14:11:00,
2013-05-03 10:22:00,58.0,37.0,30.39,East,89,5.0,7.0,46,0.00,,,0.00,,2013-05-03 14:22:00,
2013-05-03 10:32:00,58.0,37.0,30.39,East,89,5.0,7.0,46,0.00,,,0.00,,2013-05-03 14:32:00,
2013-05-03 10:42:00,58.0,37.0,30.39,East,89,5.0,7.0,46,0.00,,,0.00,,2013-05-03 14:42:00,
2013-05-03 11:32:00,59.0,35.0,30.40,East,79,9.0,11.0,41,0.00,,,0.00,,2013-05-03 15:32:00,
2013-05-03 11:43:00,59.0,35.0,30.40,East,79,9.0,11.0,41,0.00,,,0.00,,2013-05-03 15:43:00,
2013-05-03 11:53:00,59.0,35.0,30.40,East,79,9.0,11.0,41,0.00,,,0.00,,2013-05-03 15:53:00,
2013-05-03 12:03:00,59.0,37.0,30.40,East,88,6.0,8.0,43,0.00,,,0.00,,2013-05-03 16:03:00,
2013-05-03 12:13:00,59.0,37.0,30.40,East,88,6.0,8.0,43,0.00,,,0.00,,2013-05-03 16:13:00,
2013-05-03 12:23:00,61.0,38.0,30.40,ENE,74,6.0,10.0,42,0.00,,,0.00,,2013-05-03 16:23:00,
2013-05-03 12:33:00,61.0,37.0,30.39,East,84,6.0,9.0,41,0.00,,,0.00,,2013-05-03 16:33:00,
2013-05-03 12:42:00,61.0,37.0,30.39,East,84,6.0,9.0,41,0.00,,,0.00,,2013-05-03 16:42:00,
2013-05-03 12:52:00,61.0,37.0,30.39,East,84,6.0,9.0,41,0.00,,,0.00,,2013-05-03 16:52:00,
2013-05-03 13:02:00,62.0,38.0,30.39,East,96,7.0,11.0,41,0.00,,,0.00,,2013-05-03 17:02:00,
2013-05-03 13:12:00,63.0,38.0,30.38,SE,129,8.0,10.0,39,0.00,,,0.00,,2013-05-03 17:12:00,
2013-05-03 13:23:00,63.0,38.0,30.38,SE,129,8.0,10.0,39,0.00,,,0.00,,2013-05-03 17:23:00,
2013-05-03 13:32:00,63.0,38.0,30.38,ESE,112,7.0,10.0,39,0.00,,,0.00,,2013-05-03 17:32:00,
2013-05-03 13:42:00,63.0,38.0,30.38,ESE,112,7.0,10.0,39,0.00,,,0.00,,2013-05-03 17:42:00,
2013-05-03 13:52:00,63.0,38.0,30.38,East,86,5.0,8.0,40,0.00,,,0.00,,2013-05-03 17:52:00,
2013-05-03 14:01:00,63.0,38.0,30.38,East,86,5.0,8.0,40,0.00,,,0.00,,2013-05-03 18:01:00,
2013-05-03 14:12:00,63.0,38.0,30.38,East,86,5.0,8.0,40,0.00,,,0.00,,2013-05-03 18:12:00,
2013-05-03 14:21:00,64.0,35.0,30.37,ESE,123,6.0,10.0,34,0.00,,,0.00,,2013-05-03 18:21:00,
2013-05-03 14:32:00,63.0,37.0,30.37,East,91,6.0,9.0,38,0.00,,,0.00,,2013-05-03 18:32:00,
2013-05-03 14:42:00,63.0,37.0,30.37,East,91,6.0,9.0,38,0.00,,,0.00,,2013-05-03 18:42:00,
2013-05-03 14:52:00,64.0,38.0,30.37,SE,133,4.0,7.0,38,0.00,,,0.00,,2013-05-03 18:52:00,
2013-05-03 15:01:00,65.0,37.0,30.37,ESE,118,4.0,7.0,36,0.00,,,0.00,,2013-05-03 19:01:00,
2013-05-03 15:11:00,65.0,37.0,30.37,ESE,118,4.0,7.0,36,0.00,,,0.00,,2013-05-03 19:11:00,
2013-05-03 15:21:00,64.0,37.0,30.36,East,98,5.0,7.0,37,0.00,,,0.00,,2013-05-03 19:21:00,
2013-05-03 15:32:00,65.0,37.0,30.36,East,79,4.0,6.0,35,0.00,,,0.00,,2013-05-03 19:32:00,
2013-05-03 15:42:00,65.0,37.0,30.36,East,79,4.0,6.0,35,0.00,,,0.00,,2013-05-03 19:42:00,
2013-05-03 15:52:00,65.0,37.0,30.35,ESE,106,5.0,7.0,35,0.00,,,0.00,,2013-05-03 19:52:00,
2013-05-03 16:02:00,65.0,34.0,30.35,SE,144,5.0,8.0,32,0.00,,,0.00,,2013-05-03 20:02:00,
2013-05-03 16:11:00,65.0,34.0,30.35,SE,144,5.0,8.0,32,0.00,,,0.00,,2013-05-03 20:11:00,
2013-05-03 16:21:00,64.0,34.0,30.35,East,96,5.0,8.0,33,0.00,,,0.00,,2013-05-03 20:21:00,
2013-05-03 16:32:00,65.0,34.0,30.35,SSE,158,7.0,8.0,31,0.00,,,0.00,,2013-05-03 20:32:00,
2013-05-03 16:42:00,65.0,34.0,30.35,SSE,158,7.0,8.0,31,0.00,,,0.00,,2013-05-03 20:42:00,
2013-05-03 16:52:00,65.0,35.0,30.34,SSE,166,4.0,6.0,33,0.00,,,0.00,,2013-05-03 20:52:00,
2013-05-03 17:01:00,64.0,34.0,30.34,SE,142,4.0,6.0,33,0.00,,,0.00,,2013-05-03 21:01:00,
2013-05-03 17:11:00,64.0,34.0,30.34,SE,142,4.0,6.0,33,0.00,,,0.00,,2013-05-03 21:11:00,
2013-05-03 17:21:00,63.0,35.0,30.34,SSE,166,3.0,5.0,35,0.00,,,0.00,,2013-05-03 21:21:00,
2013-05-03 17:33:00,62.0,34.0,30.34,SE,145,4.0,8.0,35,0.00,,,0.00,,2013-05-03 21:33:00,
2013-05-03 17:42:00,62.0,34.0,30.34,SE,145,4.0,8.0,35,0.00,,,0.00,,2013-05-03 21:42:00,
2013-05-03 17:52:00,63.0,35.0,30.34,SE,146,5.0,8.0,35,0.00,,,0.00,,2013-05-03 21:52:00,
2013-05-03 18:03:00,62.0,40.0,30.34,SSE,153,4.0,7.0,44,0.00,,,0.00,,2013-05-03 22:03:00,
2013-05-03 18:13:00,62.0,40.0,30.34,SSE,153,4.0,7.0,44,0.00,,,0.00,,2013-05-03 22:13:00,
2013-05-03 18:22:00,62.0,40.0,30.34,South,174,4.0,7.0,45,0.00,,,0.00,,2013-05-03 22:22:00,
2013-05-03 18:32:00,62.0,40.0,30.34,South,174,4.0,7.0,45,0.00,,,0.00,,2013-05-03 22:32:00,
2013-05-03 18:42:00,62.0,40.0,30.34,South,174,4.0,7.0,45,0.00,,,0.00,,2013-05-03 22:42:00,
2013-05-03 18:52:00,62.0,40.0,30.34,South,174,4.0,7.0,45,0.00,,,0.00,,2013-05-03 22:52:00,
2013-05-03 19:02:00,60.0,40.0,30.34,South,172,3.0,6.0,48,0.00,,,0.00,,2013-05-03 23:02:00,
2013-05-03 19:11:00,60.0,40.0,30.34,South,172,3.0,6.0,48,0.00,,,0.00,,2013-05-03 23:11:00,
2013-05-03 19:22:00,59.0,40.0,30.34,SE,140,4.0,6.0,49,0.00,,,0.00,,2013-05-03 23:22:00,
2013-05-03 19:32:00,57.0,40.0,30.35,South,183,3.0,5.0,52,0.00,,,0.00,,2013-05-03 23:32:00,
2013-05-03 19:41:00,57.0,40.0,30.35,South,183,3.0,5.0,52,0.00,,,0.00,,2013-05-03 23:41:00,
2013-05-03 19:52:00,56.0,39.0,30.35,SSE,160,4.0,6.0,52,0.00,,,0.00,,2013-05-03 23:52:00,
2013-05-03 20:01:00,54.0,39.0,30.35,South,169,1.0,2.0,57,0.00,,,0.00,,2013-05-04 00:01:00,
2013-05-03 20:11:00,54.0,39.0,30.35,South,169,1.0,2.0,57,0.00,,,0.00,,2013-05-04 00:11:00,
2013-05-03 20:23:00,53.0,39.0,30.34,South,177,2.0,3.0,59,0.00,,,0.00,,2013-05-04 00:23:00,
2013-05-03 20:32:00,52.0,39.0,30.35,South,177,1.0,2.0,61,0.00,,,0.00,,2013-05-04 00:32:00,
2013-05-03 20:42:00,52.0,39.0,30.35,South,177,1.0,2.0,61,0.00,,,0.00,,2013-05-04 00:42:00,
2013-05-03 20:52:00,51.0,39.0,30.35,South,177,1.0,1.0,63,0.00,,,0.00,,2013-05-04 00:52:00,
2013-05-03 21:01:00,49.0,39.0,30.35,SSE,155,1.0,1.0,67,0.00,,,0.00,,2013-05-04 01:01:00,
2013-05-03 21:11:00,49.0,39.0,30.35,SSE,155,1.0,1.0,67,0.00,,,0.00,,2013-05-04 01:11:00,
2013-05-03 21:21:00,49.0,39.0,30.35,SSE,158,0.0,0.0,68,0.00,,,0.00,,2013-05-04 01:21:00,
2013-05-03 21:32:00,48.0,39.0,30.35,ESE,123,0.0,0.0,70,0.00,,,0.00,,2013-05-04 01:32:00,
2013-05-03 21:42:00,48.0,39.0,30.35,ESE,123,0.0,0.0,70,0.00,,,0.00,,2013-05-04 01:42:00,
2013-05-03 21:52:00,48.0,40.0,30.36,ESE,115,0.0,1.0,73,0.00,,,0.00,,2013-05-04 01:52:00,
2013-05-03 22:02:00,46.0,39.0,30.36,ESE,119,1.0,1.0,75,0.00,,,0.00,,2013-05-04 02:02:00,
2013-05-03 22:11:00,46.0,39.0,30.36,ESE,119,1.0,1.0,75,0.00,,,0.00,,2013-05-04 02:11:00,
2013-05-03 22:21:00,45.0,38.0,30.36,SE,134,0.0,1.0,76,0.00,,,0.00,,2013-05-04 02:21:00,
2013-05-03 22:32:00,45.0,39.0,30.37,SSE,150,0.0,1.0,79,0.00,,,0.00,,2013-05-04 02:32:00,
2013-05-03 22:42:00,45.0,39.0,30.37,SSE,150,0.0,1.0,79,0.00,,,0.00,,2013-05-04 02:42:00,
2013-05-03 22:52:00,44.0,38.0,30.37,SE,146,0.0,1.0,80,0.00,,,0.00,,2013-05-04 02:52:00,
2013-05-03 23:02:00,45.0,39.0,30.36,SE,136,1.0,1.0,80,0.00,,,0.00,,2013-05-04 03:02:00,
2013-05-03 23:11:00,45.0,39.0,30.36,SE,136,1.0,1.0,80,0.00,,,0.00,,2013-05-04 03:11:00,
2013-05-03 23:22:00,46.0,40.0,30.37,ESE,119,0.0,1.0,79,0.00,,,0.00,,2013-05-04 03:22:00,
2013-05-03 23:33:00,46.0,40.0,30.36,ESE,118,1.0,1.0,79,0.00,,,0.00,,2013-05-04 03:33:00,
2013-05-03 23:43:00,46.0,40.0,30.36,ESE,118,1.0,1.0,79,0.00,,,0.00,,2013-05-04 03:43:00,
2013-05-03 23:52:00,44.0,38.0,30.36,SE,128,1.0,2.0,78,0.00,,,0.00,,2013-05-04 03:52:00,